INFORMACIÓN METAR y TAF
METAR FOR LOWI
ADDS - METARS form results

(0647 UTC 28 February 2021)
Data provider http://aviationweather.gov/metar/data/
 
METAR text: LOWI 280620Z 24003KT 9999 FEW030 M02/M03 Q1034 NOSIG
Conditions at: LOWI (INNSBRUCK AIRPOR, AT) observed 0620 UTC 28 February 2021
Temperature: -2.0°C (28°F)
Dewpoint: -3.0°C (27°F) [RH = 93%]
Pressure (altimeter): 30.53 inches Hg (1034.0 mb)
Winds: from the WSW (240 degrees) at 3 MPH (3 knots; 1.5 m/s)
Visibility: 6 or more miles (10+ km)
Ceiling: at least 12,000 feet AGL
Clouds: few clouds at 3000 feet AGL
Weather: no significant weather observed at this time

METAR text: LOWI 280550Z 26005KT 9999 FEW030 M02/M04 Q1034 NOSIG
Conditions at: LOWI (INNSBRUCK AIRPOR, AT) observed 0550 UTC 28 February 2021
Temperature: -2.0°C (28°F)
Dewpoint: -4.0°C (25°F) [RH = 86%]
Pressure (altimeter): 30.53 inches Hg (1034.0 mb)
Winds: from the W (260 degrees) at 6 MPH (5 knots; 2.6 m/s)
Visibility: 6 or more miles (10+ km)
Ceiling: at least 12,000 feet AGL
Clouds: few clouds at 3000 feet AGL
Weather: no significant weather observed at this time

Forecast for: LOWI (INNSBRUCK AIRPOR, AT)
Text: TAF LOWI 280515Z 2806/0106 VRB03KT 9999 FEW040 TX11/2815Z TNM03/0106Z
Forecast period: 0600 UTC 28 February 2021 to 0600 UTC 01 March 2021
Forecast type: FROM: standard forecast or significant change
Winds: variable direction winds at 3 MPH (3 knots; 1.5 m/s)
Visibility: 6 or more miles (10+ km)
Ceiling: at least 12,000 feet AGL
Clouds: few clouds at 4000 feet AGL
Weather: no significant weather forecast for this period

 MAPA DE AEROPUERTO

 INFORMACIÓN DE PISTA